Saltford, United Kingdom
Current Conditions -  °F | °C
As of 3:20 PM on Friday 24 Oct 2014 (Local Time) from EGGD Reporting Station
Drizzle Drizzle  
Wind Chill: 57°   Ceiling: 200
Heat Index: 57°   Visibility: 2.1mi
Dew Point: 57°   Wind: 12mph
Humidity: 100%   Direction: 220°SW
Pressure: 29.88"   Gusts: NA
Location:  51.4°N, 2.46°W
Report Text: EGGD 241420Z 22010KT 3400 -DZ FEW001 BKN002 14/14 Q1012
Loading
Personal Weather Stations






























Interactive Weather Map New forecast layout! Learn more

10-Day Weather Forecast

Advertisements
Track Severe Weather on mobile